Perch River, New York
Current Conditions -  °F | °C
As of 10:56 AM on Monday 26 Jan 2015 (Local Time) from KART Reporting Station
Broken Clouds Broken Clouds  
Wind Chill: -18°   Ceiling: 10000
Heat Index:   Visibility: 10mi
Dew Point: -8°   Wind: 16mph
Humidity: 63%   Direction: 50°NE
Pressure: 30.1"   Gusts: NA
Location:  44.0116°N, 76.0789°W
Report Text: KART 261556Z AUTO 05014KT 10SM BKN100 M17/M22 A3010 RMK AO2 SLP206 T11671222
Loading
Personal Weather Stations






























Interactive Weather Map New forecast layout! Learn more

10-Day Weather Forecast

Advertisements
Track Severe Weather on mobile